Time;durP1;ratioP1;P1;durP2;ratioP2;P2;SDS_P1;SDS_P2;PMS_P1;PMS_P2;Temp;Humidity;BMP_temperature;BMP_pressure;BME280_temperature;BME280_humidity;BME280_pressure;Samples;Min_cycle;Max_cycle;Signal;HPM_P1;HPM_P2
2021/07/27 00:00:10;;;;;;;;;;;21.30;66.60;;;;;;484696;245;1054;-47
2021/07/27 00:02:11;;;;;;;;;;;21.30;66.60;;;;;;484642;245;1177;-47
2021/07/27 00:04:12;;;;;;;;;;;21.30;66.50;;;;;;485004;245;1345;-47
2021/07/27 00:06:14;;;;;;;;;;;21.30;66.50;;;;;;485086;245;1225;-47
2021/07/27 00:08:15;;;;;;;;;;;21.20;66.60;;;;;;485061;245;1291;-47
2021/07/27 00:10:16;;;;;;;;;;;21.30;66.70;;;;;;485153;245;1025;-47
2021/07/27 00:12:18;;;;;;;;;;;21.30;66.60;;;;;;484644;245;1478;-47
2021/07/27 00:14:19;;;;;;;;;;;21.30;66.60;;;;;;484819;245;2192;-47
2021/07/27 00:16:20;;;;;;;;;;;21.30;66.60;;;;;;484974;245;1611;-47
2021/07/27 00:18:22;;;;;;;;;;;21.30;66.60;;;;;;484831;245;1244;-47
2021/07/27 00:20:23;;;;;;;;;;;21.20;66.60;;;;;;484678;245;1075;-47
2021/07/27 00:22:25;;;;;;;;;;;21.20;66.60;;;;;;484748;245;1180;-47
2021/07/27 00:24:26;;;;;;;;;;;21.20;66.70;;;;;;485023;245;1154;-47
2021/07/27 00:26:27;;;;;;;;;;;21.20;66.60;;;;;;484891;245;1568;-47
2021/07/27 00:28:29;;;;;;;;;;;21.20;66.60;;;;;;484679;245;1217;-46
2021/07/27 00:30:30;;;;;;;;;;;21.30;66.60;;;;;;484850;245;1406;-47
2021/07/27 00:32:31;;;;;;;;;;;21.20;66.60;;;;;;484604;245;1340;-47
2021/07/27 00:34:33;;;;;;;;;;;21.20;66.60;;;;;;484609;245;2200;-47
2021/07/27 00:36:34;;;;;;;;;;;21.20;66.60;;;;;;484614;245;1444;-47
2021/07/27 00:38:36;;;;;;;;;;;21.20;66.60;;;;;;484708;245;1309;-47
2021/07/27 00:40:37;;;;;;;;;;;21.30;66.70;;;;;;484741;245;2129;-47
2021/07/27 00:42:38;;;;;;;;;;;21.30;66.60;;;;;;484652;245;1187;-47
2021/07/27 00:44:39;;;;;;;;;;;21.20;66.70;;;;;;485107;245;1053;-47
2021/07/27 00:46:41;;;;;;;;;;;21.20;66.60;;;;;;484888;245;1489;-47
2021/07/27 00:48:42;;;;;;;;;;;21.20;66.60;;;;;;485172;245;1078;-47
2021/07/27 00:50:43;;;;;;;;;;;21.30;66.70;;;;;;485134;245;1150;-47
2021/07/27 00:52:45;;;;;;;;;;;21.20;66.70;;;;;;484964;245;1206;-46
2021/07/27 00:54:46;;;;;;;;;;;21.20;66.60;;;;;;485006;245;2153;-46
2021/07/27 00:56:48;;;;;;;;;;;21.30;66.70;;;;;;484507;245;1435;-47
2021/07/27 00:58:49;;;;;;;;;;;21.30;66.60;;;;;;484888;245;1039;-47
2021/07/27 01:00:50;;;;;;;;;;;21.20;66.60;;;;;;484979;245;1167;-47
2021/07/27 01:02:52;;;;;;;;;;;21.30;66.70;;;;;;484913;245;1541;-47
2021/07/27 01:04:53;;;;;;;;;;;21.30;66.70;;;;;;484601;245;1047;-47
2021/07/27 01:06:54;;;;;;;;;;;21.20;66.70;;;;;;484642;245;1268;-47
2021/07/27 01:08:56;;;;;;;;;;;21.20;66.70;;;;;;484667;245;1179;-47
2021/07/27 01:10:57;;;;;;;;;;;21.20;66.60;;;;;;485112;245;1286;-47
2021/07/27 01:12:58;;;;;;;;;;;21.30;66.60;;;;;;484729;245;1195;-47
2021/07/27 01:15:00;;;;;;;;;;;21.30;66.60;;;;;;485097;245;2208;-47
2021/07/27 01:17:01;;;;;;;;;;;21.30;66.60;;;;;;485046;245;1264;-47
2021/07/27 01:19:11;;;;;;;;;;;21.30;66.60;;;;;;484966;245;1075;-47
2021/07/27 01:37:49;;;;;;;;;;;21.20;66.70;;;;;;484630;246;1411;-47
2021/07/27 01:39:46;;;;;;;;;;;21.20;66.80;;;;;;484535;246;2341;-47
2021/07/27 01:42:09;;;;;;;;;;;21.20;66.70;;;;;;484637;245;1171;-46
2021/07/27 01:44:09;;;;;;;;;;;21.30;66.70;;;;;;484740;245;1813;-47
2021/07/27 01:46:11;;;;;;;;;;;21.30;66.70;;;;;;484691;245;1203;-47
2021/07/27 01:48:12;;;;;;;;;;;21.20;66.60;;;;;;484617;245;2111;-47
2021/07/27 01:50:13;;;;;;;;;;;21.20;66.70;;;;;;485031;245;1067;-47
2021/07/27 01:52:15;;;;;;;;;;;21.20;66.60;;;;;;484634;245;1162;-46
2021/07/27 01:54:17;;;;;;;;;;;21.30;66.60;;;;;;484968;245;2192;-47
2021/07/27 01:56:17;;;;;;;;;;;21.30;66.60;;;;;;484985;245;2270;-47
2021/07/27 01:58:19;;;;;;;;;;;21.20;66.60;;;;;;484690;245;1251;-47
2021/07/27 02:00:20;;;;;;;;;;;21.20;66.70;;;;;;485178;245;1073;-46
2021/07/27 02:02:21;;;;;;;;;;;21.30;66.60;;;;;;484820;245;1170;-46
2021/07/27 02:04:23;;;;;;;;;;;21.30;66.70;;;;;;485096;245;1089;-47
2021/07/27 02:06:24;;;;;;;;;;;21.20;66.70;;;;;;484890;245;1350;-47
2021/07/27 02:08:25;;;;;;;;;;;21.20;66.70;;;;;;485098;245;1194;-47
2021/07/27 02:10:28;;;;;;;;;;;21.20;66.70;;;;;;484863;245;1138;-47
2021/07/27 02:12:35;;;;;;;;;;;21.20;66.80;;;;;;484636;246;2305;-47
2021/07/27 02:15:03;;;;;;;;;;;21.20;66.80;;;;;;484640;246;2140;-47
2021/07/27 02:16:36;;;;;;;;;;;21.30;66.80;;;;;;483260;246;2092;-47
2021/07/27 02:18:38;;;;;;;;;;;21.20;66.70;;;;;;485197;245;1071;-47
2021/07/27 02:20:39;;;;;;;;;;;21.30;66.70;;;;;;484850;245;1613;-47
2021/07/27 02:22:40;;;;;;;;;;;21.30;66.60;;;;;;484614;245;1327;-47
2021/07/27 02:24:42;;;;;;;;;;;21.30;66.60;;;;;;484975;245;1054;-47
2021/07/27 02:26:43;;;;;;;;;;;21.20;66.70;;;;;;484791;245;1316;-46
2021/07/27 02:28:44;;;;;;;;;;;21.20;66.70;;;;;;484801;245;1208;-47
2021/07/27 02:30:49;;;;;;;;;;;21.20;66.70;;;;;;485082;245;1454;-47
2021/07/27 02:32:47;;;;;;;;;;;21.20;66.60;;;;;;484574;246;2082;-47
2021/07/27 02:34:48;;;;;;;;;;;21.30;66.60;;;;;;485124;245;2199;-47
2021/07/27 02:36:50;;;;;;;;;;;21.30;66.60;;;;;;484836;245;1353;-47
2021/07/27 02:38:51;;;;;;;;;;;21.20;66.70;;;;;;485031;245;1077;-47
2021/07/27 02:40:52;;;;;;;;;;;21.30;66.60;;;;;;485174;245;1350;-47
2021/07/27 02:42:54;;;;;;;;;;;21.30;66.60;;;;;;485062;245;1225;-47
2021/07/27 02:44:55;;;;;;;;;;;21.30;66.60;;;;;;484809;245;1059;-47
2021/07/27 02:46:56;;;;;;;;;;;21.20;66.70;;;;;;484819;245;1199;-47
2021/07/27 02:48:58;;;;;;;;;;;21.20;66.70;;;;;;485058;245;1227;-47
2021/07/27 02:50:59;;;;;;;;;;;21.30;66.70;;;;;;484577;245;2587;-47
2021/07/27 02:53:01;;;;;;;;;;;21.20;66.70;;;;;;484930;245;1695;-47
2021/07/27 02:55:02;;;;;;;;;;;21.20;66.60;;;;;;484885;245;2153;-47
2021/07/27 02:57:03;;;;;;;;;;;21.20;66.60;;;;;;484563;245;1237;-47
2021/07/27 02:59:05;;;;;;;;;;;21.30;66.60;;;;;;484818;245;1251;-47
2021/07/27 03:01:06;;;;;;;;;;;21.30;66.60;;;;;;485086;245;1714;-47
2021/07/27 03:03:07;;;;;;;;;;;21.30;66.60;;;;;;484658;245;1438;-46
2021/07/27 03:05:09;;;;;;;;;;;21.20;66.70;;;;;;484693;245;1114;-47
2021/07/27 03:07:18;;;;;;;;;;;21.20;66.60;;;;;;484810;245;1294;-47
2021/07/27 03:09:15;;;;;;;;;;;21.20;66.60;;;;;;484642;246;2335;-47
2021/07/27 03:11:16;;;;;;;;;;;21.30;66.70;;;;;;485083;245;1325;-46
2021/07/27 03:13:18;;;;;;;;;;;21.30;66.80;;;;;;485092;245;1184;-47
2021/07/27 03:15:19;;;;;;;;;;;21.20;66.70;;;;;;484784;245;2199;-47
2021/07/27 03:17:20;;;;;;;;;;;21.20;66.70;;;;;;484804;245;1355;-47
2021/07/27 03:19:22;;;;;;;;;;;21.30;66.70;;;;;;484683;245;1061;-47
2021/07/27 03:21:24;;;;;;;;;;;21.30;66.70;;;;;;484650;245;1264;-47
2021/07/27 03:23:24;;;;;;;;;;;21.30;66.70;;;;;;485079;245;2538;-47
2021/07/27 03:25:26;;;;;;;;;;;21.30;66.70;;;;;;484690;245;1174;-47
2021/07/27 03:27:27;;;;;;;;;;;21.30;66.70;;;;;;484736;245;1196;-47
2021/07/27 03:29:28;;;;;;;;;;;21.20;66.60;;;;;;484838;245;1167;-47
2021/07/27 03:31:30;;;;;;;;;;;21.20;66.60;;;;;;484624;245;1316;-47
2021/07/27 03:33:31;;;;;;;;;;;21.30;66.60;;;;;;484690;245;1173;-47
2021/07/27 03:35:32;;;;;;;;;;;21.20;66.70;;;;;;485055;245;2140;-47
2021/07/27 03:37:34;;;;;;;;;;;21.20;66.80;;;;;;484703;245;1346;-47
2021/07/27 03:39:35;;;;;;;;;;;21.30;66.70;;;;;;484779;245;1032;-47
2021/07/27 03:41:36;;;;;;;;;;;21.20;66.60;;;;;;484632;245;1314;-47
2021/07/27 03:43:38;;;;;;;;;;;21.30;66.70;;;;;;484795;245;1140;-47
2021/07/27 03:45:39;;;;;;;;;;;21.20;66.70;;;;;;484700;245;1170;-47
2021/07/27 03:47:40;;;;;;;;;;;21.30;66.70;;;;;;484898;245;1543;-47
2021/07/27 03:49:42;;;;;;;;;;;21.30;66.70;;;;;;484724;245;1074;-47
2021/07/27 03:51:43;;;;;;;;;;;21.30;66.60;;;;;;484490;245;1437;-47
2021/07/27 03:53:44;;;;;;;;;;;21.20;66.60;;;;;;484640;245;1126;-47
2021/07/27 03:55:46;;;;;;;;;;;21.20;66.60;;;;;;484652;245;2143;-47
2021/07/27 03:57:47;;;;;;;;;;;21.30;66.70;;;;;;484702;245;1193;-47
2021/07/27 03:59:48;;;;;;;;;;;21.30;66.80;;;;;;484876;245;1257;-47
2021/07/27 04:01:49;;;;;;;;;;;21.30;66.70;;;;;;484657;245;1195;-46
2021/07/27 04:03:51;;;;;;;;;;;21.20;66.70;;;;;;485079;245;1051;-47
2021/07/27 04:05:52;;;;;;;;;;;21.20;66.70;;;;;;485061;245;1150;-47
2021/07/27 04:07:53;;;;;;;;;;;21.20;66.70;;;;;;485092;245;1167;-47
2021/07/27 04:09:55;;;;;;;;;;;21.30;66.70;;;;;;484724;245;1133;-47
2021/07/27 04:11:56;;;;;;;;;;;21.30;66.80;;;;;;484596;245;1224;-47
2021/07/27 04:13:57;;;;;;;;;;;21.20;66.80;;;;;;484707;245;1190;-46
2021/07/27 04:15:59;;;;;;;;;;;21.20;66.70;;;;;;485082;245;2183;-47
2021/07/27 04:18:00;;;;;;;;;;;21.20;66.70;;;;;;485093;245;1171;-47
2021/07/27 04:20:02;;;;;;;;;;;21.20;66.70;;;;;;484709;245;1059;-47
2021/07/27 04:22:03;;;;;;;;;;;21.20;66.70;;;;;;484976;245;1128;-47
2021/07/27 04:24:04;;;;;;;;;;;21.30;66.60;;;;;;484537;245;1071;-47
2021/07/27 04:26:05;;;;;;;;;;;21.30;66.70;;;;;;484983;245;1209;-47
2021/07/27 04:28:07;;;;;;;;;;;21.20;66.70;;;;;;484956;245;1126;-47
2021/07/27 04:30:08;;;;;;;;;;;21.20;66.60;;;;;;484569;245;1254;-47
2021/07/27 04:32:09;;;;;;;;;;;21.30;66.70;;;;;;484794;245;1182;-47
2021/07/27 04:34:11;;;;;;;;;;;21.20;66.70;;;;;;484536;245;1101;-46
2021/07/27 04:36:12;;;;;;;;;;;21.30;66.60;;;;;;484992;245;2204;-47
2021/07/27 04:38:13;;;;;;;;;;;21.30;66.60;;;;;;484832;245;1082;-46
2021/07/27 04:40:15;;;;;;;;;;;21.30;66.70;;;;;;484544;245;1175;-47
2021/07/27 04:42:16;;;;;;;;;;;21.20;66.70;;;;;;484717;245;1133;-47
2021/07/27 04:44:17;;;;;;;;;;;21.20;66.70;;;;;;484514;245;1202;-47
2021/07/27 04:46:19;;;;;;;;;;;21.20;66.70;;;;;;484655;245;1252;-47
2021/07/27 04:48:20;;;;;;;;;;;21.20;66.70;;;;;;484546;245;1175;-47
2021/07/27 04:50:22;;;;;;;;;;;21.20;66.80;;;;;;484607;245;1098;-47
2021/07/27 04:52:23;;;;;;;;;;;21.20;66.70;;;;;;484550;245;1281;-47
2021/07/27 04:54:28;;;;;;;;;;;21.20;66.70;;;;;;484548;245;1149;-47
2021/07/27 04:56:29;;;;;;;;;;;21.20;66.70;;;;;;484398;245;2195;-47
2021/07/27 04:58:31;;;;;;;;;;;21.20;66.70;;;;;;484520;245;1218;-47
2021/07/27 05:00:32;;;;;;;;;;;21.20;66.70;;;;;;484394;245;1657;-46
2021/07/27 05:02:34;;;;;;;;;;;21.20;66.80;;;;;;484478;245;1196;-47
2021/07/27 05:04:35;;;;;;;;;;;21.30;66.80;;;;;;484431;245;1068;-47
2021/07/27 05:06:37;;;;;;;;;;;21.20;66.70;;;;;;484538;245;1338;-47
2021/07/27 05:08:38;;;;;;;;;;;21.30;66.60;;;;;;484814;245;1078;-47
2021/07/27 05:10:39;;;;;;;;;;;21.30;66.60;;;;;;484535;245;1148;-46
2021/07/27 05:12:41;;;;;;;;;;;21.30;66.70;;;;;;484524;245;1349;-47
2021/07/27 05:14:42;;;;;;;;;;;21.20;66.90;;;;;;484529;245;1214;-47
2021/07/27 05:16:43;;;;;;;;;;;21.20;66.90;;;;;;484513;245;2179;-47
2021/07/27 05:18:45;;;;;;;;;;;21.20;66.90;;;;;;484636;245;1230;-47
2021/07/27 05:20:46;;;;;;;;;;;21.20;66.90;;;;;;484583;245;1284;-47
2021/07/27 05:22:47;;;;;;;;;;;21.20;66.90;;;;;;484613;245;1215;-47
2021/07/27 05:24:48;;;;;;;;;;;21.20;66.80;;;;;;484378;245;1164;-47
2021/07/27 05:26:50;;;;;;;;;;;21.20;66.80;;;;;;484381;245;1191;-47
2021/07/27 05:28:51;;;;;;;;;;;21.20;66.70;;;;;;484318;245;1211;-46
2021/07/27 05:30:52;;;;;;;;;;;21.20;66.70;;;;;;484623;245;1326;-47
2021/07/27 05:32:55;;;;;;;;;;;21.20;66.80;;;;;;484381;245;1543;-47
2021/07/27 05:34:56;;;;;;;;;;;21.20;66.80;;;;;;484332;246;2153;-46
2021/07/27 05:36:57;;;;;;;;;;;21.30;66.70;;;;;;484459;245;2206;-46
2021/07/27 05:38:59;;;;;;;;;;;21.20;66.70;;;;;;484348;245;1228;-47
2021/07/27 05:41:00;;;;;;;;;;;21.20;66.70;;;;;;484312;245;1242;-48
2021/07/27 05:43:01;;;;;;;;;;;21.20;66.80;;;;;;484226;245;1665;-47
2021/07/27 05:45:03;;;;;;;;;;;21.20;66.80;;;;;;484407;245;1226;-47
2021/07/27 05:47:04;;;;;;;;;;;21.20;66.70;;;;;;484396;245;1155;-47
2021/07/27 05:49:09;;;;;;;;;;;21.20;66.80;;;;;;484303;245;1079;-47
2021/07/27 05:51:10;;;;;;;;;;;21.20;66.80;;;;;;484025;246;2069;-47
2021/07/27 05:53:08;;;;;;;;;;;21.20;66.70;;;;;;484037;246;1919;-47
2021/07/27 05:55:09;;;;;;;;;;;21.20;66.70;;;;;;484336;245;2189;-47
2021/07/27 05:57:11;;;;;;;;;;;21.20;66.70;;;;;;484235;245;1260;-47
2021/07/27 05:59:12;;;;;;;;;;;21.20;66.70;;;;;;484239;245;1392;-47
2021/07/27 06:01:14;;;;;;;;;;;21.20;66.70;;;;;;484182;245;1286;-47
2021/07/27 06:03:15;;;;;;;;;;;21.30;66.80;;;;;;484598;245;1132;-47
2021/07/27 06:05:16;;;;;;;;;;;21.20;66.70;;;;;;484288;245;1275;-47
2021/07/27 06:07:18;;;;;;;;;;;21.20;66.90;;;;;;484213;245;1138;-47
2021/07/27 06:09:20;;;;;;;;;;;21.20;66.90;;;;;;484187;245;1175;-47
2021/07/27 06:11:20;;;;;;;;;;;21.20;66.80;;;;;;484130;245;2248;-47
2021/07/27 06:13:22;;;;;;;;;;;21.20;66.70;;;;;;484022;245;1370;-47
2021/07/27 06:15:23;;;;;;;;;;;21.30;66.80;;;;;;484149;245;2196;-47
2021/07/27 06:17:25;;;;;;;;;;;21.20;66.60;;;;;;484016;245;1185;-47
2021/07/27 06:19:26;;;;;;;;;;;21.30;66.70;;;;;;484068;245;1169;-47
2021/07/27 06:21:28;;;;;;;;;;;21.20;66.60;;;;;;483883;245;1245;-47
2021/07/27 06:23:29;;;;;;;;;;;21.20;66.70;;;;;;484009;245;1099;-47
2021/07/27 06:25:30;;;;;;;;;;;21.20;66.70;;;;;;484036;245;1189;-46
2021/07/27 06:27:32;;;;;;;;;;;21.30;66.70;;;;;;484145;245;1257;-47
2021/07/27 06:29:33;;;;;;;;;;;21.30;66.70;;;;;;483965;245;1097;-47
2021/07/27 06:31:35;;;;;;;;;;;21.20;66.70;;;;;;484056;245;1613;-47
2021/07/27 06:33:36;;;;;;;;;;;21.20;66.80;;;;;;483948;245;1432;-48
2021/07/27 06:35:37;;;;;;;;;;;21.30;66.80;;;;;;484012;245;2120;-47
2021/07/27 06:37:38;;;;;;;;;;;21.20;66.70;;;;;;484239;245;1190;-47
2021/07/27 06:39:40;;;;;;;;;;;21.30;66.80;;;;;;484033;245;1159;-47
2021/07/27 06:41:41;;;;;;;;;;;21.20;66.80;;;;;;484079;245;1216;-47
2021/07/27 06:43:42;;;;;;;;;;;21.20;66.80;;;;;;484028;245;1196;-47
2021/07/27 06:45:44;;;;;;;;;;;21.20;66.70;;;;;;484147;245;1280;-47
2021/07/27 06:47:45;;;;;;;;;;;21.30;66.70;;;;;;484711;245;1060;-46
2021/07/27 06:49:46;;;;;;;;;;;21.30;66.70;;;;;;484198;245;1066;-47
2021/07/27 06:51:48;;;;;;;;;;;21.20;66.70;;;;;;484072;245;1166;-47
2021/07/27 06:53:50;;;;;;;;;;;21.30;66.60;;;;;;484107;245;1254;-47
2021/07/27 06:55:50;;;;;;;;;;;21.30;66.70;;;;;;483906;246;2317;-47
2021/07/27 06:57:52;;;;;;;;;;;21.30;66.60;;;;;;484047;245;1232;-47
2021/07/27 06:59:53;;;;;;;;;;;21.40;66.50;;;;;;483987;245;1156;-47
2021/07/27 07:01:54;;;;;;;;;;;21.30;66.50;;;;;;484113;245;1166;-47
2021/07/27 07:03:56;;;;;;;;;;;21.30;66.50;;;;;;484229;245;1120;-47
2021/07/27 07:05:57;;;;;;;;;;;21.30;66.50;;;;;;483862;245;1347;-47
2021/07/27 07:07:58;;;;;;;;;;;21.30;66.50;;;;;;484153;245;1120;-47
2021/07/27 07:10:00;;;;;;;;;;;21.40;66.50;;;;;;483871;245;1445;-47
2021/07/27 07:12:01;;;;;;;;;;;21.40;66.40;;;;;;484136;245;1307;-47
2021/07/27 07:14:02;;;;;;;;;;;21.30;66.40;;;;;;483963;245;1115;-47
2021/07/27 07:16:05;;;;;;;;;;;21.30;66.50;;;;;;483977;245;2152;-47
2021/07/27 07:18:05;;;;;;;;;;;21.30;66.40;;;;;;483835;246;2364;-47
2021/07/27 07:20:06;;;;;;;;;;;21.40;66.40;;;;;;484044;245;1268;-47
2021/07/27 07:22:08;;;;;;;;;;;21.40;66.50;;;;;;483947;245;1382;-47
2021/07/27 07:24:09;;;;;;;;;;;21.40;66.40;;;;;;483832;245;2120;-47
2021/07/27 07:26:10;;;;;;;;;;;21.30;66.40;;;;;;483879;245;1363;-47
2021/07/27 07:28:12;;;;;;;;;;;21.30;66.50;;;;;;484635;245;1086;-47
2021/07/27 07:30:13;;;;;;;;;;;21.30;66.60;;;;;;484274;245;885;-47
2021/07/27 07:32:14;;;;;;;;;;;21.30;66.50;;;;;;484064;245;1168;-47
2021/07/27 07:34:16;;;;;;;;;;;21.40;66.50;;;;;;484494;245;1209;-47
2021/07/27 07:36:19;;;;;;;;;;;21.30;66.50;;;;;;484646;245;2188;-47
2021/07/27 07:38:18;;;;;;;;;;;21.30;66.40;;;;;;483550;246;2234;-47
2021/07/27 07:40:20;;;;;;;;;;;21.40;66.40;;;;;;483769;245;1216;-47
2021/07/27 07:42:21;;;;;;;;;;;21.40;66.30;;;;;;483776;245;1319;-46
2021/07/27 07:44:22;;;;;;;;;;;21.40;66.30;;;;;;483726;245;1117;-47
2021/07/27 07:46:24;;;;;;;;;;;21.30;66.40;;;;;;483842;245;1348;-47
2021/07/27 07:48:25;;;;;;;;;;;21.40;66.40;;;;;;484624;245;1005;-47
2021/07/27 07:50:29;;;;;;;;;;;21.40;66.40;;;;;;483717;245;1197;-47
2021/07/27 07:52:28;;;;;;;;;;;21.30;66.40;;;;;;483855;246;2275;-47
2021/07/27 07:54:32;;;;;;;;;;;21.40;66.50;;;;;;484568;245;872;-46
2021/07/27 07:56:32;;;;;;;;;;;21.40;66.50;;;;;;484615;245;2188;-47
2021/07/27 07:58:33;;;;;;;;;;;21.30;66.50;;;;;;484471;245;1158;-47
2021/07/27 08:00:35;;;;;;;;;;;21.40;66.40;;;;;;483756;245;970;-47
2021/07/27 08:02:36;;;;;;;;;;;21.40;66.30;;;;;;483699;245;1139;-47
2021/07/27 08:04:37;;;;;;;;;;;21.40;66.20;;;;;;484313;245;938;-47
2021/07/27 08:06:39;;;;;;;;;;;21.40;66.20;;;;;;484433;245;1231;-47
2021/07/27 08:08:41;;;;;;;;;;;21.40;66.30;;;;;;484116;245;1069;-47
2021/07/27 08:10:41;;;;;;;;;;;21.40;66.30;;;;;;483884;245;2357;-47
2021/07/27 08:12:44;;;;;;;;;;;21.40;66.30;;;;;;483994;245;1273;-47
2021/07/27 08:14:45;;;;;;;;;;;21.40;66.30;;;;;;484414;245;869;-47
2021/07/27 08:16:49;;;;;;;;;;;21.40;66.50;;;;;;484196;245;2199;-47
2021/07/27 08:18:47;;;;;;;;;;;21.30;66.40;;;;;;483058;246;1724;-46
2021/07/27 08:20:49;;;;;;;;;;;21.40;66.40;;;;;;484542;245;1125;-47
2021/07/27 08:22:50;;;;;;;;;;;21.40;66.40;;;;;;484521;245;2101;-47
2021/07/27 08:24:51;;;;;;;;;;;21.30;66.40;;;;;;483934;245;1263;-47
2021/07/27 08:26:52;;;;;;;;;;;21.30;66.50;;;;;;483858;245;1276;-47
2021/07/27 08:28:54;;;;;;;;;;;21.30;66.60;;;;;;484436;245;923;-47
2021/07/27 08:30:56;;;;;;;;;;;21.30;66.60;;;;;;484323;245;1155;-47
2021/07/27 08:32:56;;;;;;;;;;;21.30;66.50;;;;;;484160;245;2169;-47
2021/07/27 08:34:58;;;;;;;;;;;21.30;66.50;;;;;;484483;245;879;-47
2021/07/27 08:36:59;;;;;;;;;;;21.30;66.50;;;;;;484461;245;2187;-47
2021/07/27 08:39:00;;;;;;;;;;;21.30;66.50;;;;;;484108;245;904;-46
2021/07/27 08:41:02;;;;;;;;;;;21.40;66.50;;;;;;484626;245;1170;-46
2021/07/27 08:43:03;;;;;;;;;;;21.30;66.50;;;;;;484166;245;1178;-47
2021/07/27 08:45:04;;;;;;;;;;;21.30;66.50;;;;;;484145;245;1087;-47
2021/07/27 08:47:06;;;;;;;;;;;21.30;66.50;;;;;;483661;245;1317;-47
2021/07/27 08:49:07;;;;;;;;;;;21.30;66.60;;;;;;483832;245;1085;-47
2021/07/27 08:51:08;;;;;;;;;;;21.30;66.50;;;;;;483703;245;1226;-47
2021/07/27 08:53:10;;;;;;;;;;;21.30;66.60;;;;;;484535;245;1097;-47
2021/07/27 08:55:11;;;;;;;;;;;21.30;66.70;;;;;;483959;245;881;-47
2021/07/27 08:57:13;;;;;;;;;;;21.30;66.70;;;;;;483856;245;2195;-47
2021/07/27 08:59:14;;;;;;;;;;;21.30;66.70;;;;;;484491;245;1468;-47
2021/07/27 09:01:15;;;;;;;;;;;21.30;66.70;;;;;;484336;245;1160;-47
2021/07/27 09:03:18;;;;;;;;;;;21.30;66.70;;;;;;483908;245;1148;-47
2021/07/27 09:05:18;;;;;;;;;;;21.30;66.60;;;;;;483885;245;2134;-47
2021/07/27 09:07:20;;;;;;;;;;;21.30;66.60;;;;;;484328;245;1090;-46
2021/07/27 09:09:21;;;;;;;;;;;21.30;66.50;;;;;;483939;245;877;-47
2021/07/27 09:11:22;;;;;;;;;;;21.30;66.50;;;;;;483986;245;954;-47
2021/07/27 09:13:23;;;;;;;;;;;21.30;66.50;;;;;;484440;245;1075;-47
2021/07/27 09:15:25;;;;;;;;;;;21.30;66.50;;;;;;484315;245;1258;-47
2021/07/27 09:17:26;;;;;;;;;;;21.30;66.50;;;;;;484129;245;2192;-47
2021/07/27 09:19:27;;;;;;;;;;;21.30;66.60;;;;;;484399;245;871;-47
2021/07/27 09:21:29;;;;;;;;;;;21.30;66.60;;;;;;483908;245;1069;-47
2021/07/27 09:23:30;;;;;;;;;;;21.30;66.50;;;;;;484445;245;1094;-47
2021/07/27 09:25:31;;;;;;;;;;;21.30;66.50;;;;;;484430;245;1175;-47
2021/07/27 09:27:33;;;;;;;;;;;21.30;66.60;;;;;;483950;245;1067;-47
2021/07/27 09:29:34;;;;;;;;;;;21.30;66.50;;;;;;484513;245;899;-47
2021/07/27 09:31:35;;;;;;;;;;;21.30;66.60;;;;;;483869;245;1110;-47
2021/07/27 09:33:37;;;;;;;;;;;21.30;66.60;;;;;;484101;244;1208;-47
2021/07/27 09:35:38;;;;;;;;;;;21.30;66.50;;;;;;484456;245;891;-47
2021/07/27 09:37:39;;;;;;;;;;;21.30;66.50;;;;;;483901;245;2175;-47
2021/07/27 09:39:41;;;;;;;;;;;21.30;66.40;;;;;;484025;245;899;-47
2021/07/27 09:41:42;;;;;;;;;;;21.30;66.40;;;;;;484018;245;1105;-47
2021/07/27 09:43:43;;;;;;;;;;;21.30;66.60;;;;;;484271;245;838;-47
2021/07/27 09:45:44;;;;;;;;;;;21.30;66.60;;;;;;483797;245;1211;-47
2021/07/27 09:47:48;;;;;;;;;;;21.30;66.60;;;;;;483851;245;1158;-47
2021/07/27 09:49:47;;;;;;;;;;;21.30;66.70;;;;;;484305;246;2086;-47
2021/07/27 09:51:48;;;;;;;;;;;21.20;66.70;;;;;;484279;245;1221;-47
2021/07/27 09:53:50;;;;;;;;;;;21.30;66.80;;;;;;483869;245;1109;-46
2021/07/27 09:55:51;;;;;;;;;;;21.20;66.60;;;;;;484423;245;893;-47
2021/07/27 09:57:52;;;;;;;;;;;21.30;66.70;;;;;;484329;245;2190;-47
2021/07/27 09:59:54;;;;;;;;;;;21.30;66.70;;;;;;484544;245;1035;-47
2021/07/27 10:01:55;;;;;;;;;;;21.20;66.70;;;;;;483960;245;1098;-47
2021/07/27 10:03:56;;;;;;;;;;;21.30;66.70;;;;;;484184;245;1574;-47
2021/07/27 10:05:59;;;;;;;;;;;21.30;66.60;;;;;;484100;245;1169;-47
2021/07/27 10:07:59;;;;;;;;;;;21.30;66.60;;;;;;484059;246;2134;-47
2021/07/27 10:10:00;;;;;;;;;;;21.30;66.60;;;;;;484291;245;911;-47
2021/07/27 10:12:02;;;;;;;;;;;21.30;66.60;;;;;;484548;245;1195;-47
2021/07/27 10:14:03;;;;;;;;;;;21.30;66.60;;;;;;484654;245;893;-47
2021/07/27 10:16:04;;;;;;;;;;;21.30;66.60;;;;;;484101;245;1176;-47
2021/07/27 10:18:06;;;;;;;;;;;21.30;66.60;;;;;;484596;245;2188;-47
2021/07/27 10:20:07;;;;;;;;;;;21.30;66.70;;;;;;484621;245;834;-47
2021/07/27 10:22:08;;;;;;;;;;;21.30;66.70;;;;;;483761;245;1516;-46
2021/07/27 10:24:11;;;;;;;;;;;21.30;66.60;;;;;;484159;245;1256;-47
2021/07/27 10:26:11;;;;;;;;;;;21.30;66.70;;;;;;483700;245;1687;-47
2021/07/27 10:28:12;;;;;;;;;;;21.30;66.70;;;;;;484274;245;1153;-47
2021/07/27 10:30:13;;;;;;;;;;;21.30;66.70;;;;;;484446;245;935;-47
2021/07/27 10:32:15;;;;;;;;;;;21.30;66.70;;;;;;484321;243;1190;-47
2021/07/27 10:34:16;;;;;;;;;;;21.30;66.70;;;;;;484247;245;1125;-47
2021/07/27 10:36:17;;;;;;;;;;;21.30;66.70;;;;;;483958;245;1074;-47
2021/07/27 10:38:19;;;;;;;;;;;21.30;66.60;;;;;;484578;245;2183;-47
2021/07/27 10:40:20;;;;;;;;;;;21.30;66.60;;;;;;484074;245;1063;-47
2021/07/27 10:42:21;;;;;;;;;;;21.30;66.60;;;;;;484100;245;1179;-47
2021/07/27 10:44:23;;;;;;;;;;;21.30;66.60;;;;;;483962;245;906;-47
2021/07/27 10:46:24;;;;;;;;;;;21.30;66.60;;;;;;483956;245;1380;-47
2021/07/27 10:48:25;;;;;;;;;;;21.30;66.50;;;;;;484403;245;1150;-47
2021/07/27 10:50:27;;;;;;;;;;;21.40;66.50;;;;;;484477;245;1053;-47
2021/07/27 10:52:28;;;;;;;;;;;21.30;66.40;;;;;;484025;245;1068;-47
2021/07/27 10:54:29;;;;;;;;;;;21.30;66.40;;;;;;483914;245;874;-47
2021/07/27 10:56:31;;;;;;;;;;;21.30;66.50;;;;;;483964;245;1348;-47
2021/07/27 10:58:32;;;;;;;;;;;21.40;66.50;;;;;;484408;246;2186;-46
2021/07/27 11:00:33;;;;;;;;;;;21.30;66.40;;;;;;484062;245;1198;-47
2021/07/27 11:02:34;;;;;;;;;;;21.30;66.50;;;;;;484504;245;1063;-47
2021/07/27 11:04:36;;;;;;;;;;;21.30;66.60;;;;;;483907;245;1115;-47
2021/07/27 11:06:37;;;;;;;;;;;21.30;66.60;;;;;;483835;245;1061;-47
2021/07/27 11:08:39;;;;;;;;;;;21.30;66.50;;;;;;483804;245;1171;-47
2021/07/27 11:10:40;;;;;;;;;;;21.30;66.60;;;;;;483643;245;1177;-47
2021/07/27 11:12:41;;;;;;;;;;;21.30;66.60;;;;;;483719;245;1112;-47
2021/07/27 11:14:43;;;;;;;;;;;21.30;66.60;;;;;;484434;245;1331;-47
2021/07/27 11:16:44;;;;;;;;;;;21.30;66.50;;;;;;484102;245;1256;-47
2021/07/27 11:18:45;;;;;;;;;;;21.30;66.60;;;;;;483891;245;2199;-46
2021/07/27 11:20:47;;;;;;;;;;;21.30;66.60;;;;;;484250;245;1071;-47
2021/07/27 11:22:48;;;;;;;;;;;21.30;66.60;;;;;;483869;245;1127;-47
2021/07/27 11:24:49;;;;;;;;;;;21.30;66.50;;;;;;484239;245;1099;-47
2021/07/27 11:26:51;;;;;;;;;;;21.30;66.60;;;;;;483805;245;1165;-47
2021/07/27 11:28:52;;;;;;;;;;;21.30;66.60;;;;;;484484;245;833;-47
2021/07/27 11:30:53;;;;;;;;;;;21.30;66.50;;;;;;484436;245;848;-47
2021/07/27 11:32:54;;;;;;;;;;;21.30;66.70;;;;;;484265;245;1202;-47
2021/07/27 11:34:56;;;;;;;;;;;21.30;66.60;;;;;;484200;245;1029;-47
2021/07/27 11:36:58;;;;;;;;;;;21.30;66.60;;;;;;483783;245;1142;-47
2021/07/27 11:38:59;;;;;;;;;;;21.30;66.60;;;;;;484258;245;2187;-47
2021/07/27 11:41:00;;;;;;;;;;;21.30;66.60;;;;;;483913;245;1053;-47
2021/07/27 11:43:05;;;;;;;;;;;21.30;66.60;;;;;;484428;245;846;-47
2021/07/27 11:45:04;;;;;;;;;;;21.30;66.60;;;;;;484277;246;2185;-47
2021/07/27 11:47:04;;;;;;;;;;;21.30;66.60;;;;;;483967;246;2085;-47
2021/07/27 11:49:05;;;;;;;;;;;21.30;66.60;;;;;;483952;245;1054;-47
2021/07/27 11:51:07;;;;;;;;;;;21.30;66.60;;;;;;483978;245;1171;-47
2021/07/27 11:53:08;;;;;;;;;;;21.30;66.60;;;;;;483818;245;1029;-47
2021/07/27 11:55:09;;;;;;;;;;;21.30;66.60;;;;;;483927;245;890;-47
2021/07/27 11:57:10;;;;;;;;;;;21.30;66.60;;;;;;484020;245;1129;-47
2021/07/27 11:59:12;;;;;;;;;;;21.30;66.70;;;;;;484323;245;2199;-47
2021/07/27 12:01:14;;;;;;;;;;;21.30;66.60;;;;;;483851;243;1074;-47
2021/07/27 12:03:14;;;;;;;;;;;21.30;66.70;;;;;;484432;245;2227;-46
2021/07/27 12:05:16;;;;;;;;;;;21.30;66.60;;;;;;484159;245;1051;-47
2021/07/27 12:07:19;;;;;;;;;;;21.30;66.70;;;;;;483845;245;1257;-47
2021/07/27 12:09:18;;;;;;;;;;;21.30;66.60;;;;;;483754;245;2151;-47
2021/07/27 12:11:20;;;;;;;;;;;21.30;66.60;;;;;;484309;245;1155;-47
2021/07/27 12:13:21;;;;;;;;;;;21.30;66.50;;;;;;483943;245;870;-47